sensor_id;sensor_type;location;lat;lon;timestamp;P1;durP1;ratioP1;P2;durP2;ratioP2
20794;SDS011;28087;-33.874;151.240;2023-05-10T00:02:40;7.72;;;2.03;;
20794;SDS011;28087;-33.874;151.240;2023-05-10T00:05:14;5.55;;;1.70;;
20794;SDS011;28087;-33.874;151.240;2023-05-10T00:07:49;3.72;;;1.80;;
20794;SDS011;28087;-33.874;151.240;2023-05-10T00:10:24;4.80;;;2.00;;
20794;SDS011;28087;-33.874;151.240;2023-05-10T00:12:59;4.57;;;2.08;;
20794;SDS011;28087;-33.874;151.240;2023-05-10T00:15:36;5.75;;;2.10;;
20794;SDS011;28087;-33.874;151.240;2023-05-10T00:18:10;5.70;;;1.88;;
20794;SDS011;28087;-33.874;151.240;2023-05-10T00:20:45;3.65;;;1.60;;
20794;SDS011;28087;-33.874;151.240;2023-05-10T00:23:21;5.80;;;1.70;;
20794;SDS011;28087;-33.874;151.240;2023-05-10T00:25:55;6.55;;;1.70;;
20794;SDS011;28087;-33.874;151.240;2023-05-10T00:28:30;7.72;;;1.63;;
20794;SDS011;28087;-33.874;151.240;2023-05-10T00:31:09;3.72;;;1.40;;
20794;SDS011;28087;-33.874;151.240;2023-05-10T00:33:45;5.97;;;1.20;;
20794;SDS011;28087;-33.874;151.240;2023-05-10T00:36:20;3.55;;;1.00;;
20794;SDS011;28087;-33.874;151.240;2023-05-10T00:38:58;2.65;;;1.17;;
20794;SDS011;28087;-33.874;151.240;2023-05-10T00:41:34;3.75;;;1.23;;
20794;SDS011;28087;-33.874;151.240;2023-05-10T00:44:09;4.35;;;1.50;;
20794;SDS011;28087;-33.874;151.240;2023-05-10T00:46:47;2.25;;;1.05;;
20794;SDS011;28087;-33.874;151.240;2023-05-10T00:49:22;7.22;;;1.30;;
20794;SDS011;28087;-33.874;151.240;2023-05-10T00:51:57;3.70;;;1.20;;
20794;SDS011;28087;-33.874;151.240;2023-05-10T00:54:34;4.93;;;1.17;;
20794;SDS011;28087;-33.874;151.240;2023-05-10T00:57:08;6.00;;;1.23;;
20794;SDS011;28087;-33.874;151.240;2023-05-10T00:59:43;4.05;;;1.20;;
20794;SDS011;28087;-33.874;151.240;2023-05-10T01:02:20;4.43;;;1.13;;
20794;SDS011;28087;-33.874;151.240;2023-05-10T01:04:57;4.35;;;1.10;;
20794;SDS011;28087;-33.874;151.240;2023-05-10T01:07:33;7.75;;;1.40;;
20794;SDS011;28087;-33.874;151.240;2023-05-10T01:10:08;4.15;;;1.10;;
20794;SDS011;28087;-33.874;151.240;2023-05-10T01:12:46;3.13;;;1.13;;
20794;SDS011;28087;-33.874;151.240;2023-05-10T01:15:22;5.15;;;1.30;;
20794;SDS011;28087;-33.874;151.240;2023-05-10T01:17:59;6.53;;;1.33;;
20794;SDS011;28087;-33.874;151.240;2023-05-10T01:20:35;5.45;;;1.17;;
20794;SDS011;28087;-33.874;151.240;2023-05-10T01:23:22;3.20;;;1.05;;
20794;SDS011;28087;-33.874;151.240;2023-05-10T01:28:58;4.93;;;1.13;;
20794;SDS011;28087;-33.874;151.240;2023-05-10T01:31:40;5.03;;;1.40;;
20794;SDS011;28087;-33.874;151.240;2023-05-10T01:34:20;4.85;;;1.20;;
20794;SDS011;28087;-33.874;151.240;2023-05-10T01:36:58;3.72;;;1.30;;
20794;SDS011;28087;-33.874;151.240;2023-05-10T01:39:36;5.30;;;1.25;;
20794;SDS011;28087;-33.874;151.240;2023-05-10T01:42:19;7.20;;;1.50;;
20794;SDS011;28087;-33.874;151.240;2023-05-10T01:44:56;4.03;;;1.10;;
20794;SDS011;28087;-33.874;151.240;2023-05-10T01:47:34;4.70;;;1.27;;
20794;SDS011;28087;-33.874;151.240;2023-05-10T01:50:14;2.95;;;1.02;;
20794;SDS011;28087;-33.874;151.240;2023-05-10T01:52:51;5.40;;;1.27;;
20794;SDS011;28087;-33.874;151.240;2023-05-10T01:55:28;4.25;;;1.27;;
20794;SDS011;28087;-33.874;151.240;2023-05-10T01:58:04;3.83;;;1.20;;
20794;SDS011;28087;-33.874;151.240;2023-05-10T02:00:40;3.15;;;1.10;;
20794;SDS011;28087;-33.874;151.240;2023-05-10T02:03:16;4.60;;;1.20;;
20794;SDS011;28087;-33.874;151.240;2023-05-10T02:05:55;2.67;;;1.00;;
20794;SDS011;28087;-33.874;151.240;2023-05-10T02:08:31;4.93;;;1.20;;
20794;SDS011;28087;-33.874;151.240;2023-05-10T02:11:06;3.20;;;1.00;;
20794;SDS011;28087;-33.874;151.240;2023-05-10T02:13:41;3.20;;;1.00;;
20794;SDS011;28087;-33.874;151.240;2023-05-10T02:16:18;3.00;;;1.00;;
20794;SDS011;28087;-33.874;151.240;2023-05-10T02:18:56;3.92;;;1.10;;
20794;SDS011;28087;-33.874;151.240;2023-05-10T02:21:34;5.15;;;1.20;;
20794;SDS011;28087;-33.874;151.240;2023-05-10T02:24:09;5.13;;;1.30;;
20794;SDS011;28087;-33.874;151.240;2023-05-10T02:26:45;5.03;;;1.40;;
20794;SDS011;28087;-33.874;151.240;2023-05-10T02:29:21;3.67;;;1.30;;
20794;SDS011;28087;-33.874;151.240;2023-05-10T02:31:56;5.13;;;1.40;;
20794;SDS011;28087;-33.874;151.240;2023-05-10T02:34:33;5.97;;;1.30;;
20794;SDS011;28087;-33.874;151.240;2023-05-10T02:37:18;5.60;;;1.40;;
20794;SDS011;28087;-33.874;151.240;2023-05-10T02:40:19;2.95;;;1.00;;
20794;SDS011;28087;-33.874;151.240;2023-05-10T02:42:59;5.13;;;1.30;;
20794;SDS011;28087;-33.874;151.240;2023-05-10T02:45:51;6.47;;;1.40;;
20794;SDS011;28087;-33.874;151.240;2023-05-10T02:48:33;5.15;;;1.10;;
20794;SDS011;28087;-33.874;151.240;2023-05-10T02:51:16;3.92;;;1.20;;
20794;SDS011;28087;-33.874;151.240;2023-05-10T02:54:06;3.95;;;1.27;;
20794;SDS011;28087;-33.874;151.240;2023-05-10T02:56:53;3.25;;;1.13;;
20794;SDS011;28087;-33.874;151.240;2023-05-10T02:59:39;3.83;;;1.02;;
20794;SDS011;28087;-33.874;151.240;2023-05-10T03:02:25;3.95;;;1.30;;
20794;SDS011;28087;-33.874;151.240;2023-05-10T03:05:13;5.10;;;1.20;;
20794;SDS011;28087;-33.874;151.240;2023-05-10T03:08:09;5.38;;;1.30;;
20794;SDS011;28087;-33.874;151.240;2023-05-10T03:11:21;3.85;;;1.10;;
20794;SDS011;28087;-33.874;151.240;2023-05-10T03:14:11;3.38;;;1.17;;
20794;SDS011;28087;-33.874;151.240;2023-05-10T03:16:52;4.22;;;1.23;;
20794;SDS011;28087;-33.874;151.240;2023-05-10T03:19:32;3.25;;;1.15;;
20794;SDS011;28087;-33.874;151.240;2023-05-10T03:22:08;3.63;;;1.10;;
20794;SDS011;28087;-33.874;151.240;2023-05-10T03:24:46;3.03;;;1.15;;
20794;SDS011;28087;-33.874;151.240;2023-05-10T03:27:34;4.47;;;1.33;;
20794;SDS011;28087;-33.874;151.240;2023-05-10T03:30:11;4.55;;;1.10;;
20794;SDS011;28087;-33.874;151.240;2023-05-10T03:32:48;5.00;;;1.20;;
20794;SDS011;28087;-33.874;151.240;2023-05-10T03:35:42;5.07;;;1.25;;
20794;SDS011;28087;-33.874;151.240;2023-05-10T03:38:22;3.88;;;1.33;;
20794;SDS011;28087;-33.874;151.240;2023-05-10T03:41:12;5.18;;;1.20;;
20794;SDS011;28087;-33.874;151.240;2023-05-10T03:43:54;4.60;;;1.13;;
20794;SDS011;28087;-33.874;151.240;2023-05-10T03:46:39;2.97;;;0.98;;
20794;SDS011;28087;-33.874;151.240;2023-05-10T03:49:23;4.07;;;1.23;;
20794;SDS011;28087;-33.874;151.240;2023-05-10T03:52:17;3.83;;;1.20;;
20794;SDS011;28087;-33.874;151.240;2023-05-10T03:54:53;4.53;;;1.60;;
20794;SDS011;28087;-33.874;151.240;2023-05-10T03:57:28;4.18;;;1.90;;
20794;SDS011;28087;-33.874;151.240;2023-05-10T04:00:06;3.08;;;1.20;;
20794;SDS011;28087;-33.874;151.240;2023-05-10T04:02:44;4.60;;;1.17;;
20794;SDS011;28087;-33.874;151.240;2023-05-10T04:05:20;5.97;;;1.20;;
20794;SDS011;28087;-33.874;151.240;2023-05-10T04:07:55;3.03;;;1.02;;
20794;SDS011;28087;-33.874;151.240;2023-05-10T04:10:31;2.95;;;0.93;;
20794;SDS011;28087;-33.874;151.240;2023-05-10T04:13:06;4.70;;;1.30;;
20794;SDS011;28087;-33.874;151.240;2023-05-10T04:15:43;2.92;;;1.10;;
20794;SDS011;28087;-33.874;151.240;2023-05-10T04:18:18;4.93;;;1.08;;
20794;SDS011;28087;-33.874;151.240;2023-05-10T04:20:54;4.82;;;1.40;;
20794;SDS011;28087;-33.874;151.240;2023-05-10T04:23:28;5.10;;;1.20;;
20794;SDS011;28087;-33.874;151.240;2023-05-10T04:26:03;3.05;;;1.10;;
20794;SDS011;28087;-33.874;151.240;2023-05-10T04:28:41;3.10;;;1.30;;
20794;SDS011;28087;-33.874;151.240;2023-05-10T04:31:19;5.05;;;1.13;;
20794;SDS011;28087;-33.874;151.240;2023-05-10T04:33:54;3.08;;;1.10;;
20794;SDS011;28087;-33.874;151.240;2023-05-10T04:36:29;5.03;;;1.40;;
20794;SDS011;28087;-33.874;151.240;2023-05-10T04:39:06;6.53;;;1.40;;
20794;SDS011;28087;-33.874;151.240;2023-05-10T04:41:42;6.10;;;1.20;;
20794;SDS011;28087;-33.874;151.240;2023-05-10T04:44:16;3.50;;;1.20;;
20794;SDS011;28087;-33.874;151.240;2023-05-10T04:46:54;4.47;;;1.40;;
20794;SDS011;28087;-33.874;151.240;2023-05-10T04:49:29;5.68;;;1.52;;
20794;SDS011;28087;-33.874;151.240;2023-05-10T04:52:04;3.95;;;1.35;;
20794;SDS011;28087;-33.874;151.240;2023-05-10T04:54:39;5.13;;;1.30;;
20794;SDS011;28087;-33.874;151.240;2023-05-10T04:57:15;5.45;;;1.20;;
20794;SDS011;28087;-33.874;151.240;2023-05-10T04:59:50;3.20;;;1.15;;
20794;SDS011;28087;-33.874;151.240;2023-05-10T05:02:28;6.97;;;1.58;;
20794;SDS011;28087;-33.874;151.240;2023-05-10T05:05:04;2.97;;;1.08;;
20794;SDS011;28087;-33.874;151.240;2023-05-10T05:07:39;4.32;;;1.15;;
20794;SDS011;28087;-33.874;151.240;2023-05-10T05:10:14;4.68;;;1.33;;
20794;SDS011;28087;-33.874;151.240;2023-05-10T05:12:52;4.65;;;1.27;;
20794;SDS011;28087;-33.874;151.240;2023-05-10T05:15:26;4.95;;;1.30;;
20794;SDS011;28087;-33.874;151.240;2023-05-10T05:18:04;4.18;;;1.20;;
20794;SDS011;28087;-33.874;151.240;2023-05-10T05:20:39;9.52;;;1.40;;
20794;SDS011;28087;-33.874;151.240;2023-05-10T05:23:14;6.75;;;1.67;;
20794;SDS011;28087;-33.874;151.240;2023-05-10T05:25:52;4.88;;;1.52;;
20794;SDS011;28087;-33.874;151.240;2023-05-10T05:28:27;8.60;;;1.60;;
20794;SDS011;28087;-33.874;151.240;2023-05-10T05:31:04;5.95;;;1.55;;
20794;SDS011;28087;-33.874;151.240;2023-05-10T05:33:42;5.90;;;1.30;;
20794;SDS011;28087;-33.874;151.240;2023-05-10T05:36:17;9.63;;;1.70;;
20794;SDS011;28087;-33.874;151.240;2023-05-10T05:38:52;6.20;;;1.40;;
20794;SDS011;28087;-33.874;151.240;2023-05-10T05:41:30;5.63;;;1.55;;
20794;SDS011;28087;-33.874;151.240;2023-05-10T05:44:07;5.13;;;1.50;;
20794;SDS011;28087;-33.874;151.240;2023-05-10T05:46:41;6.25;;;1.58;;
20794;SDS011;28087;-33.874;151.240;2023-05-10T05:49:19;4.65;;;1.40;;
20794;SDS011;28087;-33.874;151.240;2023-05-10T05:51:53;4.18;;;1.25;;
20794;SDS011;28087;-33.874;151.240;2023-05-10T05:54:29;6.68;;;1.35;;
20794;SDS011;28087;-33.874;151.240;2023-05-10T05:57:08;4.15;;;1.30;;
20794;SDS011;28087;-33.874;151.240;2023-05-10T05:59:43;5.38;;;1.30;;
20794;SDS011;28087;-33.874;151.240;2023-05-10T06:02:18;6.03;;;1.40;;
20794;SDS011;28087;-33.874;151.240;2023-05-10T06:04:56;4.63;;;1.40;;
20794;SDS011;28087;-33.874;151.240;2023-05-10T06:07:32;4.07;;;1.10;;
20794;SDS011;28087;-33.874;151.240;2023-05-10T06:10:07;6.15;;;1.30;;
20794;SDS011;28087;-33.874;151.240;2023-05-10T06:12:42;4.97;;;1.20;;
20794;SDS011;28087;-33.874;151.240;2023-05-10T06:15:20;4.32;;;1.20;;
20794;SDS011;28087;-33.874;151.240;2023-05-10T06:17:56;5.60;;;1.40;;
20794;SDS011;28087;-33.874;151.240;2023-05-10T06:20:34;6.25;;;1.50;;
20794;SDS011;28087;-33.874;151.240;2023-05-10T06:23:09;5.63;;;1.63;;
20794;SDS011;28087;-33.874;151.240;2023-05-10T06:25:44;6.32;;;1.40;;
20794;SDS011;28087;-33.874;151.240;2023-05-10T06:28:18;3.20;;;1.10;;
20794;SDS011;28087;-33.874;151.240;2023-05-10T06:30:56;5.50;;;1.30;;
20794;SDS011;28087;-33.874;151.240;2023-05-10T06:33:31;4.95;;;1.23;;
20794;SDS011;28087;-33.874;151.240;2023-05-10T06:36:08;4.15;;;1.20;;
20794;SDS011;28087;-33.874;151.240;2023-05-10T06:38:43;4.15;;;1.23;;
20794;SDS011;28087;-33.874;151.240;2023-05-10T06:41:19;6.25;;;1.50;;
20794;SDS011;28087;-33.874;151.240;2023-05-10T06:43:53;4.47;;;1.50;;
20794;SDS011;28087;-33.874;151.240;2023-05-10T06:46:28;5.57;;;1.52;;
20794;SDS011;28087;-33.874;151.240;2023-05-10T06:49:03;6.25;;;1.38;;
20794;SDS011;28087;-33.874;151.240;2023-05-10T06:51:40;5.25;;;1.40;;
20794;SDS011;28087;-33.874;151.240;2023-05-10T06:54:15;7.13;;;1.52;;
20794;SDS011;28087;-33.874;151.240;2023-05-10T06:56:51;5.32;;;1.40;;
20794;SDS011;28087;-33.874;151.240;2023-05-10T06:59:25;5.55;;;1.50;;
20794;SDS011;28087;-33.874;151.240;2023-05-10T07:02:00;7.43;;;1.70;;
20794;SDS011;28087;-33.874;151.240;2023-05-10T07:04:35;5.78;;;1.63;;
20794;SDS011;28087;-33.874;151.240;2023-05-10T07:07:13;6.63;;;1.58;;
20794;SDS011;28087;-33.874;151.240;2023-05-10T07:09:47;6.63;;;1.80;;
20794;SDS011;28087;-33.874;151.240;2023-05-10T07:12:31;5.32;;;1.58;;
20794;SDS011;28087;-33.874;151.240;2023-05-10T07:15:08;8.23;;;1.98;;
20794;SDS011;28087;-33.874;151.240;2023-05-10T07:17:43;6.72;;;1.90;;
20794;SDS011;28087;-33.874;151.240;2023-05-10T07:20:18;6.25;;;1.63;;
20794;SDS011;28087;-33.874;151.240;2023-05-10T07:22:56;7.95;;;1.60;;
20794;SDS011;28087;-33.874;151.240;2023-05-10T07:25:30;4.65;;;1.60;;
20794;SDS011;28087;-33.874;151.240;2023-05-10T07:28:05;6.45;;;1.58;;
20794;SDS011;28087;-33.874;151.240;2023-05-10T07:30:39;6.13;;;1.55;;
20794;SDS011;28087;-33.874;151.240;2023-05-10T07:33:14;7.63;;;1.60;;
20794;SDS011;28087;-33.874;151.240;2023-05-10T07:35:49;5.80;;;1.73;;
20794;SDS011;28087;-33.874;151.240;2023-05-10T07:38:28;6.20;;;1.73;;
20794;SDS011;28087;-33.874;151.240;2023-05-10T07:41:02;8.43;;;2.20;;
20794;SDS011;28087;-33.874;151.240;2023-05-10T07:43:37;8.45;;;2.00;;
20794;SDS011;28087;-33.874;151.240;2023-05-10T07:46:12;8.65;;;2.30;;
20794;SDS011;28087;-33.874;151.240;2023-05-10T07:48:47;6.88;;;1.90;;
20794;SDS011;28087;-33.874;151.240;2023-05-10T07:51:21;9.05;;;2.20;;
20794;SDS011;28087;-33.874;151.240;2023-05-10T07:53:59;11.75;;;2.33;;
20794;SDS011;28087;-33.874;151.240;2023-05-10T07:56:33;8.00;;;2.20;;
20794;SDS011;28087;-33.874;151.240;2023-05-10T07:59:09;7.57;;;2.45;;
20794;SDS011;28087;-33.874;151.240;2023-05-10T08:01:43;8.05;;;2.30;;
20794;SDS011;28087;-33.874;151.240;2023-05-10T08:04:18;7.75;;;2.08;;
20794;SDS011;28087;-33.874;151.240;2023-05-10T08:06:53;8.88;;;2.10;;
20794;SDS011;28087;-33.874;151.240;2023-05-10T08:09:30;8.68;;;1.88;;
20794;SDS011;28087;-33.874;151.240;2023-05-10T08:12:05;8.23;;;2.20;;
20794;SDS011;28087;-33.874;151.240;2023-05-10T08:14:40;9.82;;;2.08;;
20794;SDS011;28087;-33.874;151.240;2023-05-10T08:17:16;7.22;;;2.10;;
20794;SDS011;28087;-33.874;151.240;2023-05-10T08:19:52;9.45;;;2.30;;
20794;SDS011;28087;-33.874;151.240;2023-05-10T08:22:27;9.68;;;2.30;;
20794;SDS011;28087;-33.874;151.240;2023-05-10T08:25:05;7.85;;;2.17;;
20794;SDS011;28087;-33.874;151.240;2023-05-10T08:27:40;14.13;;;2.35;;
20794;SDS011;28087;-33.874;151.240;2023-05-10T08:30:15;9.40;;;2.42;;
20794;SDS011;28087;-33.874;151.240;2023-05-10T08:32:49;11.45;;;2.42;;
20794;SDS011;28087;-33.874;151.240;2023-05-10T08:35:24;13.13;;;2.70;;
20794;SDS011;28087;-33.874;151.240;2023-05-10T08:37:59;7.82;;;2.80;;
20794;SDS011;28087;-33.874;151.240;2023-05-10T08:40:39;13.30;;;3.00;;
20794;SDS011;28087;-33.874;151.240;2023-05-10T08:43:16;10.98;;;3.38;;
20794;SDS011;28087;-33.874;151.240;2023-05-10T08:45:51;10.07;;;2.70;;
20794;SDS011;28087;-33.874;151.240;2023-05-10T08:48:30;8.20;;;2.05;;
20794;SDS011;28087;-33.874;151.240;2023-05-10T08:51:08;8.38;;;2.60;;
20794;SDS011;28087;-33.874;151.240;2023-05-10T08:53:43;10.07;;;2.20;;
20794;SDS011;28087;-33.874;151.240;2023-05-10T08:56:21;8.88;;;2.20;;
20794;SDS011;28087;-33.874;151.240;2023-05-10T08:58:56;9.32;;;2.20;;
20794;SDS011;28087;-33.874;151.240;2023-05-10T09:01:32;9.35;;;2.22;;
20794;SDS011;28087;-33.874;151.240;2023-05-10T09:04:09;9.27;;;2.15;;
20794;SDS011;28087;-33.874;151.240;2023-05-10T09:06:44;8.20;;;2.20;;
20794;SDS011;28087;-33.874;151.240;2023-05-10T09:09:19;8.38;;;2.10;;
20794;SDS011;28087;-33.874;151.240;2023-05-10T09:11:58;8.27;;;2.17;;
20794;SDS011;28087;-33.874;151.240;2023-05-10T09:14:33;7.22;;;2.13;;
20794;SDS011;28087;-33.874;151.240;2023-05-10T09:17:09;8.98;;;2.30;;
20794;SDS011;28087;-33.874;151.240;2023-05-10T09:19:45;8.98;;;2.50;;
20794;SDS011;28087;-33.874;151.240;2023-05-10T09:22:20;9.32;;;2.42;;
20794;SDS011;28087;-33.874;151.240;2023-05-10T09:25:04;9.18;;;2.38;;
20794;SDS011;28087;-33.874;151.240;2023-05-10T09:27:43;12.10;;;2.50;;
20794;SDS011;28087;-33.874;151.240;2023-05-10T09:30:23;8.07;;;2.47;;
20794;SDS011;28087;-33.874;151.240;2023-05-10T09:32:59;8.88;;;2.42;;
20794;SDS011;28087;-33.874;151.240;2023-05-10T09:35:34;9.32;;;2.40;;
20794;SDS011;28087;-33.874;151.240;2023-05-10T09:38:11;7.28;;;2.15;;
20794;SDS011;28087;-33.874;151.240;2023-05-10T09:40:50;7.55;;;2.05;;
20794;SDS011;28087;-33.874;151.240;2023-05-10T09:43:30;7.47;;;2.13;;
20794;SDS011;28087;-33.874;151.240;2023-05-10T09:46:11;6.45;;;2.03;;
20794;SDS011;28087;-33.874;151.240;2023-05-10T09:48:47;9.77;;;2.85;;
20794;SDS011;28087;-33.874;151.240;2023-05-10T09:51:21;6.10;;;2.30;;
20794;SDS011;28087;-33.874;151.240;2023-05-10T09:54:08;7.55;;;2.10;;
20794;SDS011;28087;-33.874;151.240;2023-05-10T09:56:43;8.73;;;2.40;;
20794;SDS011;28087;-33.874;151.240;2023-05-10T09:59:21;7.13;;;2.08;;
20794;SDS011;28087;-33.874;151.240;2023-05-10T10:01:56;6.88;;;2.35;;
20794;SDS011;28087;-33.874;151.240;2023-05-10T10:04:32;6.80;;;2.50;;
20794;SDS011;28087;-33.874;151.240;2023-05-10T10:07:13;8.55;;;3.10;;
20794;SDS011;28087;-33.874;151.240;2023-05-10T10:09:47;10.07;;;3.10;;
20794;SDS011;28087;-33.874;151.240;2023-05-10T10:12:23;9.98;;;2.95;;
20794;SDS011;28087;-33.874;151.240;2023-05-10T10:15:01;11.23;;;2.88;;
20794;SDS011;28087;-33.874;151.240;2023-05-10T10:17:37;10.95;;;3.00;;
20794;SDS011;28087;-33.874;151.240;2023-05-10T10:20:12;9.10;;;2.63;;
20794;SDS011;28087;-33.874;151.240;2023-05-10T10:22:47;8.35;;;2.45;;
20794;SDS011;28087;-33.874;151.240;2023-05-10T10:25:23;8.18;;;2.13;;
20794;SDS011;28087;-33.874;151.240;2023-05-10T10:28:01;8.95;;;2.40;;
20794;SDS011;28087;-33.874;151.240;2023-05-10T10:30:43;10.27;;;2.70;;
20794;SDS011;28087;-33.874;151.240;2023-05-10T10:33:30;11.20;;;2.78;;
20794;SDS011;28087;-33.874;151.240;2023-05-10T10:36:05;10.20;;;2.67;;
20794;SDS011;28087;-33.874;151.240;2023-05-10T10:38:56;11.50;;;2.83;;
20794;SDS011;28087;-33.874;151.240;2023-05-10T10:41:35;10.60;;;2.75;;
20794;SDS011;28087;-33.874;151.240;2023-05-10T10:47:08;9.23;;;2.20;;
20794;SDS011;28087;-33.874;151.240;2023-05-10T10:49:48;6.40;;;2.30;;
20794;SDS011;28087;-33.874;151.240;2023-05-10T10:52:25;7.38;;;2.08;;
20794;SDS011;28087;-33.874;151.240;2023-05-10T10:55:01;10.82;;;2.10;;
20794;SDS011;28087;-33.874;151.240;2023-05-10T10:57:45;8.00;;;2.00;;
20794;SDS011;28087;-33.874;151.240;2023-05-10T11:00:22;9.80;;;2.17;;
20794;SDS011;28087;-33.874;151.240;2023-05-10T11:03:00;10.00;;;2.20;;
20794;SDS011;28087;-33.874;151.240;2023-05-10T11:05:37;7.10;;;1.80;;
20794;SDS011;28087;-33.874;151.240;2023-05-10T11:08:18;10.68;;;2.13;;
20794;SDS011;28087;-33.874;151.240;2023-05-10T11:11:02;9.77;;;2.00;;
20794;SDS011;28087;-33.874;151.240;2023-05-10T11:13:42;8.82;;;1.90;;
20794;SDS011;28087;-33.874;151.240;2023-05-10T11:16:24;8.07;;;2.10;;
20794;SDS011;28087;-33.874;151.240;2023-05-10T11:19:02;10.23;;;1.95;;
20794;SDS011;28087;-33.874;151.240;2023-05-10T11:21:44;10.75;;;2.13;;
20794;SDS011;28087;-33.874;151.240;2023-05-10T11:24:21;10.50;;;2.35;;
20794;SDS011;28087;-33.874;151.240;2023-05-10T11:26:59;8.70;;;2.03;;
20794;SDS011;28087;-33.874;151.240;2023-05-10T11:29:34;7.50;;;2.08;;
20794;SDS011;28087;-33.874;151.240;2023-05-10T11:32:10;14.80;;;2.25;;
20794;SDS011;28087;-33.874;151.240;2023-05-10T11:34:47;7.47;;;1.88;;
20794;SDS011;28087;-33.874;151.240;2023-05-10T11:37:21;7.57;;;1.70;;
20794;SDS011;28087;-33.874;151.240;2023-05-10T11:39:57;11.88;;;2.20;;
20794;SDS011;28087;-33.874;151.240;2023-05-10T11:42:31;10.70;;;2.60;;
20794;SDS011;28087;-33.874;151.240;2023-05-10T11:45:07;10.63;;;3.00;;
20794;SDS011;28087;-33.874;151.240;2023-05-10T11:47:42;8.15;;;2.47;;
20794;SDS011;28087;-33.874;151.240;2023-05-10T11:50:24;10.02;;;3.67;;
20794;SDS011;28087;-33.874;151.240;2023-05-10T11:52:58;8.32;;;3.20;;
20794;SDS011;28087;-33.874;151.240;2023-05-10T11:55:35;10.38;;;3.42;;
20794;SDS011;28087;-33.874;151.240;2023-05-10T11:58:10;11.13;;;2.85;;
20794;SDS011;28087;-33.874;151.240;2023-05-10T12:00:45;9.02;;;2.97;;
20794;SDS011;28087;-33.874;151.240;2023-05-10T12:03:24;8.80;;;2.97;;
20794;SDS011;28087;-33.874;151.240;2023-05-10T12:06:01;11.15;;;3.60;;
20794;SDS011;28087;-33.874;151.240;2023-05-10T12:08:36;10.43;;;3.33;;
20794;SDS011;28087;-33.874;151.240;2023-05-10T12:11:12;10.95;;;3.28;;
20794;SDS011;28087;-33.874;151.240;2023-05-10T12:13:46;10.65;;;3.95;;
20794;SDS011;28087;-33.874;151.240;2023-05-10T12:16:22;11.30;;;4.35;;
20794;SDS011;28087;-33.874;151.240;2023-05-10T12:18:58;11.38;;;4.30;;
20794;SDS011;28087;-33.874;151.240;2023-05-10T12:21:36;10.93;;;4.38;;
20794;SDS011;28087;-33.874;151.240;2023-05-10T12:24:12;11.98;;;4.32;;
20794;SDS011;28087;-33.874;151.240;2023-05-10T12:26:49;11.23;;;4.40;;
20794;SDS011;28087;-33.874;151.240;2023-05-10T12:29:29;10.43;;;4.20;;
20794;SDS011;28087;-33.874;151.240;2023-05-10T12:32:05;9.70;;;4.20;;
20794;SDS011;28087;-33.874;151.240;2023-05-10T12:34:40;11.82;;;4.72;;
20794;SDS011;28087;-33.874;151.240;2023-05-10T12:37:17;10.75;;;4.30;;
20794;SDS011;28087;-33.874;151.240;2023-05-10T12:39:57;12.68;;;4.15;;
20794;SDS011;28087;-33.874;151.240;2023-05-10T12:42:33;10.18;;;4.30;;
20794;SDS011;28087;-33.874;151.240;2023-05-10T12:45:10;13.38;;;4.25;;
20794;SDS011;28087;-33.874;151.240;2023-05-10T12:47:45;11.40;;;4.25;;
20794;SDS011;28087;-33.874;151.240;2023-05-10T12:50:21;8.73;;;4.10;;
20794;SDS011;28087;-33.874;151.240;2023-05-10T12:52:59;9.32;;;4.22;;
20794;SDS011;28087;-33.874;151.240;2023-05-10T12:55:33;9.93;;;4.10;;
20794;SDS011;28087;-33.874;151.240;2023-05-10T12:58:08;10.55;;;3.92;;
20794;SDS011;28087;-33.874;151.240;2023-05-10T13:01:04;6.72;;;3.20;;
20794;SDS011;28087;-33.874;151.240;2023-05-10T13:03:39;9.77;;;3.60;;
20794;SDS011;28087;-33.874;151.240;2023-05-10T13:06:14;9.55;;;3.50;;
20794;SDS011;28087;-33.874;151.240;2023-05-10T13:08:51;9.10;;;3.42;;
20794;SDS011;28087;-33.874;151.240;2023-05-10T13:11:26;10.57;;;3.47;;
20794;SDS011;28087;-33.874;151.240;2023-05-10T13:14:01;11.38;;;3.95;;
20794;SDS011;28087;-33.874;151.240;2023-05-10T13:16:36;11.70;;;3.80;;
20794;SDS011;28087;-33.874;151.240;2023-05-10T13:19:11;10.30;;;3.80;;
20794;SDS011;28087;-33.874;151.240;2023-05-10T13:21:48;7.88;;;3.60;;
20794;SDS011;28087;-33.874;151.240;2023-05-10T13:24:26;10.13;;;4.35;;
20794;SDS011;28087;-33.874;151.240;2023-05-10T13:27:00;9.43;;;4.20;;
20794;SDS011;28087;-33.874;151.240;2023-05-10T13:29:35;12.80;;;3.85;;
20794;SDS011;28087;-33.874;151.240;2023-05-10T13:32:12;11.63;;;4.10;;
20794;SDS011;28087;-33.874;151.240;2023-05-10T13:34:48;11.20;;;4.03;;
20794;SDS011;28087;-33.874;151.240;2023-05-10T13:37:25;9.25;;;4.05;;
20794;SDS011;28087;-33.874;151.240;2023-05-10T13:40:02;12.68;;;3.78;;
20794;SDS011;28087;-33.874;151.240;2023-05-10T13:42:37;9.82;;;3.92;;
20794;SDS011;28087;-33.874;151.240;2023-05-10T13:45:15;11.25;;;3.90;;
20794;SDS011;28087;-33.874;151.240;2023-05-10T13:47:50;9.32;;;3.75;;
20794;SDS011;28087;-33.874;151.240;2023-05-10T13:50:27;10.32;;;4.00;;
20794;SDS011;28087;-33.874;151.240;2023-05-10T13:53:03;10.23;;;4.05;;
20794;SDS011;28087;-33.874;151.240;2023-05-10T13:55:40;8.98;;;3.60;;
20794;SDS011;28087;-33.874;151.240;2023-05-10T13:58:15;10.00;;;3.58;;
20794;SDS011;28087;-33.874;151.240;2023-05-10T14:00:52;10.98;;;3.85;;
20794;SDS011;28087;-33.874;151.240;2023-05-10T14:03:27;10.10;;;3.60;;
20794;SDS011;28087;-33.874;151.240;2023-05-10T14:06:04;12.13;;;4.05;;
20794;SDS011;28087;-33.874;151.240;2023-05-10T14:08:43;10.60;;;3.90;;
20794;SDS011;28087;-33.874;151.240;2023-05-10T14:11:21;7.88;;;3.70;;
20794;SDS011;28087;-33.874;151.240;2023-05-10T14:14:07;8.63;;;3.67;;
20794;SDS011;28087;-33.874;151.240;2023-05-10T14:16:44;10.00;;;3.88;;
20794;SDS011;28087;-33.874;151.240;2023-05-10T14:19:22;11.35;;;4.35;;
20794;SDS011;28087;-33.874;151.240;2023-05-10T14:22:03;9.80;;;3.90;;
20794;SDS011;28087;-33.874;151.240;2023-05-10T14:24:39;11.73;;;4.30;;
20794;SDS011;28087;-33.874;151.240;2023-05-10T14:27:19;9.93;;;3.78;;
20794;SDS011;28087;-33.874;151.240;2023-05-10T14:29:53;10.45;;;4.47;;
20794;SDS011;28087;-33.874;151.240;2023-05-10T14:32:29;10.88;;;4.00;;
20794;SDS011;28087;-33.874;151.240;2023-05-10T14:35:03;10.20;;;4.00;;
20794;SDS011;28087;-33.874;151.240;2023-05-10T14:37:41;9.60;;;3.70;;
20794;SDS011;28087;-33.874;151.240;2023-05-10T14:40:17;8.63;;;4.00;;
20794;SDS011;28087;-33.874;151.240;2023-05-10T14:42:54;9.25;;;3.60;;
20794;SDS011;28087;-33.874;151.240;2023-05-10T14:45:28;7.57;;;3.70;;
20794;SDS011;28087;-33.874;151.240;2023-05-10T14:48:04;11.00;;;4.10;;
20794;SDS011;28087;-33.874;151.240;2023-05-10T14:50:41;11.75;;;3.90;;
20794;SDS011;28087;-33.874;151.240;2023-05-10T14:53:17;8.00;;;3.70;;
20794;SDS011;28087;-33.874;151.240;2023-05-10T14:55:52;11.63;;;4.10;;
20794;SDS011;28087;-33.874;151.240;2023-05-10T14:58:29;8.90;;;3.85;;
20794;SDS011;28087;-33.874;151.240;2023-05-10T15:01:04;7.55;;;3.80;;
20794;SDS011;28087;-33.874;151.240;2023-05-10T15:03:39;8.57;;;3.90;;
20794;SDS011;28087;-33.874;151.240;2023-05-10T15:06:15;10.45;;;4.10;;
20794;SDS011;28087;-33.874;151.240;2023-05-10T15:08:50;6.93;;;3.80;;
20794;SDS011;28087;-33.874;151.240;2023-05-10T15:11:25;10.40;;;3.70;;